sensor_id;sensor_type;location;lat;lon;timestamp;temperature;humidity
69436;SHT31;56625;54.322;18.582;2023-07-09T00:01:52;15.77;75.52
69436;SHT31;56625;54.322;18.582;2023-07-09T00:04:18;15.55;75.89
69436;SHT31;56625;54.322;18.582;2023-07-09T00:06:45;15.38;76.41
69436;SHT31;56625;54.322;18.582;2023-07-09T00:09:16;15.25;76.70
69436;SHT31;56625;54.322;18.582;2023-07-09T00:11:47;15.17;76.92
69436;SHT31;56625;54.322;18.582;2023-07-09T00:14:15;15.09;77.19
69436;SHT31;56625;54.322;18.582;2023-07-09T00:16:44;15.03;77.35
69436;SHT31;56625;54.322;18.582;2023-07-09T00:19:16;14.97;77.57
69436;SHT31;56625;54.322;18.582;2023-07-09T00:21:47;14.92;77.79
69436;SHT31;56625;54.322;18.582;2023-07-09T00:24:19;14.88;77.97
69436;SHT31;56625;54.322;18.582;2023-07-09T00:26:46;14.81;78.33
69436;SHT31;56625;54.322;18.582;2023-07-09T00:29:15;14.71;78.83
69436;SHT31;56625;54.322;18.582;2023-07-09T00:31:42;14.64;78.95
69436;SHT31;56625;54.322;18.582;2023-07-09T00:34:10;14.57;79.12
69436;SHT31;56625;54.322;18.582;2023-07-09T00:36:41;14.52;79.32
69436;SHT31;56625;54.322;18.582;2023-07-09T00:39:19;14.47;79.49
69436;SHT31;56625;54.322;18.582;2023-07-09T00:41:49;14.42;79.48
69436;SHT31;56625;54.322;18.582;2023-07-09T00:49:26;14.32;79.84
69436;SHT31;56625;54.322;18.582;2023-07-09T00:52:11;14.31;80.10
69436;SHT31;56625;54.322;18.582;2023-07-09T00:55:00;14.31;80.36
69436;SHT31;56625;54.322;18.582;2023-07-09T00:57:35;14.29;80.59
69436;SHT31;56625;54.322;18.582;2023-07-09T01:00:07;14.24;80.66
69436;SHT31;56625;54.322;18.582;2023-07-09T01:02:41;14.20;80.66
69436;SHT31;56625;54.322;18.582;2023-07-09T01:05:14;14.17;81.07
69436;SHT31;56625;54.322;18.582;2023-07-09T01:07:43;14.16;81.26
69436;SHT31;56625;54.322;18.582;2023-07-09T01:10:15;14.15;81.36
69436;SHT31;56625;54.322;18.582;2023-07-09T01:12:44;14.14;81.32
69436;SHT31;56625;54.322;18.582;2023-07-09T01:15:15;14.13;81.34
69436;SHT31;56625;54.322;18.582;2023-07-09T01:17:42;14.13;81.32
69436;SHT31;56625;54.322;18.582;2023-07-09T01:20:15;14.12;81.30
69436;SHT31;56625;54.322;18.582;2023-07-09T01:22:47;14.11;81.31
69436;SHT31;56625;54.322;18.582;2023-07-09T01:25:16;14.08;81.22
69436;SHT31;56625;54.322;18.582;2023-07-09T01:27:44;14.03;80.99
69436;SHT31;56625;54.322;18.582;2023-07-09T01:30:19;14.00;80.93
69436;SHT31;56625;54.322;18.582;2023-07-09T01:32:56;13.96;80.94
69436;SHT31;56625;54.322;18.582;2023-07-09T01:35:25;13.92;81.01
69436;SHT31;56625;54.322;18.582;2023-07-09T01:37:52;13.88;81.02
69436;SHT31;56625;54.322;18.582;2023-07-09T01:40:22;13.85;81.15
69436;SHT31;56625;54.322;18.582;2023-07-09T01:43:02;13.84;81.34
69436;SHT31;56625;54.322;18.582;2023-07-09T01:45:33;13.81;81.60
69436;SHT31;56625;54.322;18.582;2023-07-09T01:48:03;13.80;81.68
69436;SHT31;56625;54.322;18.582;2023-07-09T01:50:30;13.78;81.79
69436;SHT31;56625;54.322;18.582;2023-07-09T01:52:57;13.76;81.96
69436;SHT31;56625;54.322;18.582;2023-07-09T01:55:25;13.74;82.11
69436;SHT31;56625;54.322;18.582;2023-07-09T01:57:52;13.73;82.14
69436;SHT31;56625;54.322;18.582;2023-07-09T02:00:21;13.73;82.05
69436;SHT31;56625;54.322;18.582;2023-07-09T02:02:48;13.73;82.01
69436;SHT31;56625;54.322;18.582;2023-07-09T02:05:16;13.75;82.07
69436;SHT31;56625;54.322;18.582;2023-07-09T02:07:45;13.76;82.15
69436;SHT31;56625;54.322;18.582;2023-07-09T02:10:14;13.77;82.05
69436;SHT31;56625;54.322;18.582;2023-07-09T02:12:44;13.78;81.84
69436;SHT31;56625;54.322;18.582;2023-07-09T02:15:14;13.77;81.93
69436;SHT31;56625;54.322;18.582;2023-07-09T02:17:42;13.78;82.02
69436;SHT31;56625;54.322;18.582;2023-07-09T02:20:10;13.79;81.84
69436;SHT31;56625;54.322;18.582;2023-07-09T02:22:39;13.78;81.65
69436;SHT31;56625;54.322;18.582;2023-07-09T02:25:06;13.78;81.60
69436;SHT31;56625;54.322;18.582;2023-07-09T02:27:35;13.80;81.64
69436;SHT31;56625;54.322;18.582;2023-07-09T02:30:03;13.83;81.72
69436;SHT31;56625;54.322;18.582;2023-07-09T02:32:34;13.83;81.85
69436;SHT31;56625;54.322;18.582;2023-07-09T02:35:01;13.82;81.82
69436;SHT31;56625;54.322;18.582;2023-07-09T02:37:28;13.83;81.79
69436;SHT31;56625;54.322;18.582;2023-07-09T02:39:54;13.86;81.71
69436;SHT31;56625;54.322;18.582;2023-07-09T02:42:21;13.86;81.63
69436;SHT31;56625;54.322;18.582;2023-07-09T02:44:49;13.89;81.64
69436;SHT31;56625;54.322;18.582;2023-07-09T02:47:17;13.90;81.67
69436;SHT31;56625;54.322;18.582;2023-07-09T02:49:45;13.92;81.96
69436;SHT31;56625;54.322;18.582;2023-07-09T02:52:12;13.93;82.27
69436;SHT31;56625;54.322;18.582;2023-07-09T02:54:39;13.92;82.30
69436;SHT31;56625;54.322;18.582;2023-07-09T02:57:06;13.93;82.32
69436;SHT31;56625;54.322;18.582;2023-07-09T02:59:33;13.95;82.12
69436;SHT31;56625;54.322;18.582;2023-07-09T03:02:00;13.94;81.91
69436;SHT31;56625;54.322;18.582;2023-07-09T03:04:29;13.94;81.82
69436;SHT31;56625;54.322;18.582;2023-07-09T03:06:57;13.94;81.91
69436;SHT31;56625;54.322;18.582;2023-07-09T03:09:23;13.95;81.90
69436;SHT31;56625;54.322;18.582;2023-07-09T03:11:50;13.97;81.96
69436;SHT31;56625;54.322;18.582;2023-07-09T03:14:16;14.00;82.16
69436;SHT31;56625;54.322;18.582;2023-07-09T03:16:43;14.02;82.46
69436;SHT31;56625;54.322;18.582;2023-07-09T03:19:10;14.07;82.52
69436;SHT31;56625;54.322;18.582;2023-07-09T03:21:37;14.19;82.43
69436;SHT31;56625;54.322;18.582;2023-07-09T03:24:04;14.38;82.00
69436;SHT31;56625;54.322;18.582;2023-07-09T03:26:32;14.54;81.48
69436;SHT31;56625;54.322;18.582;2023-07-09T03:28:58;14.71;80.94
69436;SHT31;56625;54.322;18.582;2023-07-09T03:31:24;14.93;80.38
69436;SHT31;56625;54.322;18.582;2023-07-09T03:33:51;15.04;79.83
69436;SHT31;56625;54.322;18.582;2023-07-09T03:36:19;15.28;79.49
69436;SHT31;56625;54.322;18.582;2023-07-09T03:38:46;15.75;78.48
69436;SHT31;56625;54.322;18.582;2023-07-09T03:41:14;16.13;76.94
69436;SHT31;56625;54.322;18.582;2023-07-09T03:43:41;16.46;75.55
69436;SHT31;56625;54.322;18.582;2023-07-09T03:46:08;16.65;74.61
69436;SHT31;56625;54.322;18.582;2023-07-09T03:48:34;16.50;74.28
69436;SHT31;56625;54.322;18.582;2023-07-09T03:51:01;16.21;74.85
69436;SHT31;56625;54.322;18.582;2023-07-09T03:53:28;15.90;75.67
69436;SHT31;56625;54.322;18.582;2023-07-09T03:55:55;15.65;76.74
69436;SHT31;56625;54.322;18.582;2023-07-09T03:58:24;15.49;77.44
69436;SHT31;56625;54.322;18.582;2023-07-09T04:00:52;15.41;77.87
69436;SHT31;56625;54.322;18.582;2023-07-09T04:03:21;15.51;78.12
69436;SHT31;56625;54.322;18.582;2023-07-09T04:05:48;15.89;77.29
69436;SHT31;56625;54.322;18.582;2023-07-09T04:08:15;16.20;76.15
69436;SHT31;56625;54.322;18.582;2023-07-09T04:10:42;16.41;75.43
69436;SHT31;56625;54.322;18.582;2023-07-09T04:13:08;16.60;74.83
69436;SHT31;56625;54.322;18.582;2023-07-09T04:15:35;16.77;74.48
69436;SHT31;56625;54.322;18.582;2023-07-09T04:18:01;16.99;74.17
69436;SHT31;56625;54.322;18.582;2023-07-09T04:20:28;17.23;73.87
69436;SHT31;56625;54.322;18.582;2023-07-09T04:22:55;17.47;73.22
69436;SHT31;56625;54.322;18.582;2023-07-09T04:25:22;17.64;72.73
69436;SHT31;56625;54.322;18.582;2023-07-09T04:27:49;17.82;72.31
69436;SHT31;56625;54.322;18.582;2023-07-09T04:30:16;17.93;71.97
69436;SHT31;56625;54.322;18.582;2023-07-09T04:32:43;18.03;71.88
69436;SHT31;56625;54.322;18.582;2023-07-09T04:35:11;18.18;71.80
69436;SHT31;56625;54.322;18.582;2023-07-09T04:37:40;18.46;71.63
69436;SHT31;56625;54.322;18.582;2023-07-09T04:40:08;18.72;71.06
69436;SHT31;56625;54.322;18.582;2023-07-09T04:42:39;18.79;70.76
69436;SHT31;56625;54.322;18.582;2023-07-09T04:45:07;18.85;70.22
69436;SHT31;56625;54.322;18.582;2023-07-09T04:47:37;18.75;70.66
69436;SHT31;56625;54.322;18.582;2023-07-09T04:50:05;18.67;70.80
69436;SHT31;56625;54.322;18.582;2023-07-09T04:52:37;18.57;70.78
69436;SHT31;56625;54.322;18.582;2023-07-09T04:55:04;18.44;71.00
69436;SHT31;56625;54.322;18.582;2023-07-09T04:57:31;18.42;71.19
69436;SHT31;56625;54.322;18.582;2023-07-09T04:59:58;18.35;71.42
69436;SHT31;56625;54.322;18.582;2023-07-09T05:02:24;18.31;71.65
69436;SHT31;56625;54.322;18.582;2023-07-09T05:04:51;18.32;71.79
69436;SHT31;56625;54.322;18.582;2023-07-09T05:07:18;18.29;71.80
69436;SHT31;56625;54.322;18.582;2023-07-09T05:09:46;18.30;71.99
69436;SHT31;56625;54.322;18.582;2023-07-09T05:12:13;18.30;72.19
69436;SHT31;56625;54.322;18.582;2023-07-09T05:14:40;18.32;72.36
69436;SHT31;56625;54.322;18.582;2023-07-09T05:17:06;18.43;72.29
69436;SHT31;56625;54.322;18.582;2023-07-09T05:19:34;18.54;72.09
69436;SHT31;56625;54.322;18.582;2023-07-09T05:22:02;18.60;71.80
69436;SHT31;56625;54.322;18.582;2023-07-09T05:24:28;18.78;71.77
69436;SHT31;56625;54.322;18.582;2023-07-09T05:26:55;18.98;71.65
69436;SHT31;56625;54.322;18.582;2023-07-09T05:29:22;19.12;71.02
69436;SHT31;56625;54.322;18.582;2023-07-09T05:31:51;19.17;70.93
69436;SHT31;56625;54.322;18.582;2023-07-09T05:34:18;19.19;70.85
69436;SHT31;56625;54.322;18.582;2023-07-09T05:36:44;19.27;70.90
69436;SHT31;56625;54.322;18.582;2023-07-09T05:39:11;19.34;70.43
69436;SHT31;56625;54.322;18.582;2023-07-09T05:41:38;19.36;70.45
69436;SHT31;56625;54.322;18.582;2023-07-09T05:44:04;19.42;70.44
69436;SHT31;56625;54.322;18.582;2023-07-09T05:46:33;19.62;70.04
69436;SHT31;56625;54.322;18.582;2023-07-09T05:49:03;19.81;69.35
69436;SHT31;56625;54.322;18.582;2023-07-09T05:51:31;19.98;69.11
69436;SHT31;56625;54.322;18.582;2023-07-09T05:53:58;20.26;69.11
69436;SHT31;56625;54.322;18.582;2023-07-09T05:56:25;20.67;68.30
69436;SHT31;56625;54.322;18.582;2023-07-09T05:58:52;20.95;66.42
69436;SHT31;56625;54.322;18.582;2023-07-09T06:01:18;21.19;64.69
69436;SHT31;56625;54.322;18.582;2023-07-09T06:03:46;21.31;60.76
69436;SHT31;56625;54.322;18.582;2023-07-09T06:06:13;21.30;59.02
69436;SHT31;56625;54.322;18.582;2023-07-09T06:08:39;21.37;59.47
69436;SHT31;56625;54.322;18.582;2023-07-09T06:11:06;21.50;58.60
69436;SHT31;56625;54.322;18.582;2023-07-09T06:13:33;21.51;56.56
69436;SHT31;56625;54.322;18.582;2023-07-09T06:16:00;21.53;56.33
69436;SHT31;56625;54.322;18.582;2023-07-09T06:18:28;21.65;56.75
69436;SHT31;56625;54.322;18.582;2023-07-09T06:20:57;21.81;56.65
69436;SHT31;56625;54.322;18.582;2023-07-09T06:23:26;22.07;55.32
69436;SHT31;56625;54.322;18.582;2023-07-09T06:25:54;22.25;54.30
69436;SHT31;56625;54.322;18.582;2023-07-09T06:28:22;22.37;52.84
69436;SHT31;56625;54.322;18.582;2023-07-09T06:30:50;22.40;52.19
69436;SHT31;56625;54.322;18.582;2023-07-09T06:33:18;22.49;52.31
69436;SHT31;56625;54.322;18.582;2023-07-09T06:35:47;22.57;51.84
69436;SHT31;56625;54.322;18.582;2023-07-09T06:38:20;22.67;52.03
69436;SHT31;56625;54.322;18.582;2023-07-09T06:40:47;22.78;51.96
69436;SHT31;56625;54.322;18.582;2023-07-09T06:43:14;22.97;52.25
69436;SHT31;56625;54.322;18.582;2023-07-09T06:48:25;23.20;51.04
69436;SHT31;56625;54.322;18.582;2023-07-09T06:50:55;23.35;51.00
69436;SHT31;56625;54.322;18.582;2023-07-09T06:53:24;23.41;50.20
69436;SHT31;56625;54.322;18.582;2023-07-09T06:55:52;23.46;50.58
69436;SHT31;56625;54.322;18.582;2023-07-09T06:58:21;23.56;49.78
69436;SHT31;56625;54.322;18.582;2023-07-09T07:00:51;23.57;49.24
69436;SHT31;56625;54.322;18.582;2023-07-09T07:03:18;23.56;49.79
69436;SHT31;56625;54.322;18.582;2023-07-09T07:05:45;23.65;49.47
69436;SHT31;56625;54.322;18.582;2023-07-09T07:08:15;23.74;49.77
69436;SHT31;56625;54.322;18.582;2023-07-09T07:10:45;23.87;49.73
69436;SHT31;56625;54.322;18.582;2023-07-09T07:13:14;24.02;49.32
69436;SHT31;56625;54.322;18.582;2023-07-09T07:15:40;24.17;48.59
69436;SHT31;56625;54.322;18.582;2023-07-09T07:18:07;24.30;48.03
69436;SHT31;56625;54.322;18.582;2023-07-09T07:20:34;24.34;47.30
69436;SHT31;56625;54.322;18.582;2023-07-09T07:23:01;24.34;47.92
69436;SHT31;56625;54.322;18.582;2023-07-09T07:25:27;24.38;47.72
69436;SHT31;56625;54.322;18.582;2023-07-09T07:27:54;24.42;47.94
69436;SHT31;56625;54.322;18.582;2023-07-09T07:30:20;24.56;47.55
69436;SHT31;56625;54.322;18.582;2023-07-09T07:32:51;24.69;46.28
69436;SHT31;56625;54.322;18.582;2023-07-09T07:35:18;24.74;45.60
69436;SHT31;56625;54.322;18.582;2023-07-09T07:37:45;24.74;45.11
69436;SHT31;56625;54.322;18.582;2023-07-09T07:40:11;24.79;44.86
69436;SHT31;56625;54.322;18.582;2023-07-09T07:42:38;24.89;44.46
69436;SHT31;56625;54.322;18.582;2023-07-09T07:45:05;24.87;43.27
69436;SHT31;56625;54.322;18.582;2023-07-09T07:47:33;24.69;43.94
69436;SHT31;56625;54.322;18.582;2023-07-09T07:50:03;24.75;44.53
69436;SHT31;56625;54.322;18.582;2023-07-09T07:52:31;24.91;44.74
69436;SHT31;56625;54.322;18.582;2023-07-09T07:54:59;25.08;44.43
69436;SHT31;56625;54.322;18.582;2023-07-09T07:57:25;25.21;43.70
69436;SHT31;56625;54.322;18.582;2023-07-09T07:59:52;25.30;43.68
69436;SHT31;56625;54.322;18.582;2023-07-09T08:02:20;25.37;43.44
69436;SHT31;56625;54.322;18.582;2023-07-09T08:04:46;25.45;43.06
69436;SHT31;56625;54.322;18.582;2023-07-09T08:07:13;25.44;43.05
69436;SHT31;56625;54.322;18.582;2023-07-09T08:09:39;25.50;42.86
69436;SHT31;56625;54.322;18.582;2023-07-09T08:12:06;25.58;42.92
69436;SHT31;56625;54.322;18.582;2023-07-09T08:14:42;25.68;43.08
69436;SHT31;56625;54.322;18.582;2023-07-09T08:17:11;25.84;42.58
69436;SHT31;56625;54.322;18.582;2023-07-09T08:22:17;25.59;41.78
69436;SHT31;56625;54.322;18.582;2023-07-09T08:24:46;25.56;42.56
69436;SHT31;56625;54.322;18.582;2023-07-09T08:27:13;25.71;42.36
69436;SHT31;56625;54.322;18.582;2023-07-09T08:29:40;25.81;41.81
69436;SHT31;56625;54.322;18.582;2023-07-09T08:32:08;25.90;41.51
69436;SHT31;56625;54.322;18.582;2023-07-09T08:34:38;25.84;40.29
69436;SHT31;56625;54.322;18.582;2023-07-09T08:37:26;25.90;41.29
69436;SHT31;56625;54.322;18.582;2023-07-09T08:39:53;26.12;39.93
69436;SHT31;56625;54.322;18.582;2023-07-09T08:42:31;26.14;39.83
69436;SHT31;56625;54.322;18.582;2023-07-09T08:45:28;26.28;39.68
69436;SHT31;56625;54.322;18.582;2023-07-09T08:48:32;26.46;40.41
69436;SHT31;56625;54.322;18.582;2023-07-09T08:51:13;26.76;40.14
69436;SHT31;56625;54.322;18.582;2023-07-09T08:53:58;27.06;40.15
69436;SHT31;56625;54.322;18.582;2023-07-09T08:56:27;27.19;38.84
69436;SHT31;56625;54.322;18.582;2023-07-09T08:58:59;27.26;39.02
69436;SHT31;56625;54.322;18.582;2023-07-09T09:01:35;27.41;38.75
69436;SHT31;56625;54.322;18.582;2023-07-09T09:06:59;27.69;38.82
69436;SHT31;56625;54.322;18.582;2023-07-09T09:10:00;27.80;37.84
69436;SHT31;56625;54.322;18.582;2023-07-09T09:15:09;27.79;37.81
69436;SHT31;56625;54.322;18.582;2023-07-09T09:17:42;28.02;37.68
69436;SHT31;56625;54.322;18.582;2023-07-09T09:20:16;28.11;36.58
69436;SHT31;56625;54.322;18.582;2023-07-09T09:22:54;27.91;36.48
69436;SHT31;56625;54.322;18.582;2023-07-09T09:25:44;27.65;36.27
69436;SHT31;56625;54.322;18.582;2023-07-09T09:28:38;27.51;36.49
69436;SHT31;56625;54.322;18.582;2023-07-09T09:31:04;27.55;37.70
69436;SHT31;56625;54.322;18.582;2023-07-09T09:33:43;27.83;36.72
69436;SHT31;56625;54.322;18.582;2023-07-09T09:36:15;27.99;36.13
69436;SHT31;56625;54.322;18.582;2023-07-09T09:38:48;28.03;36.08
69436;SHT31;56625;54.322;18.582;2023-07-09T09:41:18;28.04;36.51
69436;SHT31;56625;54.322;18.582;2023-07-09T09:43:48;28.26;36.62
69436;SHT31;56625;54.322;18.582;2023-07-09T09:46:19;28.33;36.78
69436;SHT31;56625;54.322;18.582;2023-07-09T09:48:56;28.24;36.88
69436;SHT31;56625;54.322;18.582;2023-07-09T09:51:27;28.21;37.20
69436;SHT31;56625;54.322;18.582;2023-07-09T09:53:57;28.31;37.16
69436;SHT31;56625;54.322;18.582;2023-07-09T09:56:30;28.41;36.56
69436;SHT31;56625;54.322;18.582;2023-07-09T09:59:02;28.44;36.00
69436;SHT31;56625;54.322;18.582;2023-07-09T10:01:32;28.44;35.63
69436;SHT31;56625;54.322;18.582;2023-07-09T10:04:02;28.33;35.47
69436;SHT31;56625;54.322;18.582;2023-07-09T10:12:36;28.38;36.14
69436;SHT31;56625;54.322;18.582;2023-07-09T10:18:19;28.71;35.05
69436;SHT31;56625;54.322;18.582;2023-07-09T10:21:17;28.65;34.88
69436;SHT31;56625;54.322;18.582;2023-07-09T10:27:06;28.54;35.19
69436;SHT31;56625;54.322;18.582;2023-07-09T10:29:50;28.53;34.64
69436;SHT31;56625;54.322;18.582;2023-07-09T10:41:26;28.72;33.73
69436;SHT31;56625;54.322;18.582;2023-07-09T10:44:00;28.72;33.76
69436;SHT31;56625;54.322;18.582;2023-07-09T10:46:36;28.79;33.99
69436;SHT31;56625;54.322;18.582;2023-07-09T10:49:09;28.94;33.88
69436;SHT31;56625;54.322;18.582;2023-07-09T10:51:49;29.04;33.58
69436;SHT31;56625;54.322;18.582;2023-07-09T10:57:11;28.95;32.88
69436;SHT31;56625;54.322;18.582;2023-07-09T10:59:48;28.86;33.17
69436;SHT31;56625;54.322;18.582;2023-07-09T11:02:19;28.86;33.66
69436;SHT31;56625;54.322;18.582;2023-07-09T11:04:58;28.92;33.42
69436;SHT31;56625;54.322;18.582;2023-07-09T11:07:35;28.82;33.10
69436;SHT31;56625;54.322;18.582;2023-07-09T11:10:19;28.76;33.37
69436;SHT31;56625;54.322;18.582;2023-07-09T11:13:11;28.66;33.60
69436;SHT31;56625;54.322;18.582;2023-07-09T11:15:49;28.64;33.78
69436;SHT31;56625;54.322;18.582;2023-07-09T11:18:24;28.72;34.27
69436;SHT31;56625;54.322;18.582;2023-07-09T11:21:00;28.72;33.34
69436;SHT31;56625;54.322;18.582;2023-07-09T11:23:44;28.58;33.68
69436;SHT31;56625;54.322;18.582;2023-07-09T11:29:18;28.44;34.20
69436;SHT31;56625;54.322;18.582;2023-07-09T11:31:49;28.53;34.30
69436;SHT31;56625;54.322;18.582;2023-07-09T11:34:17;28.67;34.23
69436;SHT31;56625;54.322;18.582;2023-07-09T11:36:50;28.79;34.28
69436;SHT31;56625;54.322;18.582;2023-07-09T11:39:30;28.88;33.74
69436;SHT31;56625;54.322;18.582;2023-07-09T11:42:02;28.83;33.72
69436;SHT31;56625;54.322;18.582;2023-07-09T11:44:31;28.61;33.45
69436;SHT31;56625;54.322;18.582;2023-07-09T11:49:57;28.50;34.15
69436;SHT31;56625;54.322;18.582;2023-07-09T11:52:57;28.53;34.08
69436;SHT31;56625;54.322;18.582;2023-07-09T11:55:40;28.41;33.94
69436;SHT31;56625;54.322;18.582;2023-07-09T11:58:13;28.43;34.26
69436;SHT31;56625;54.322;18.582;2023-07-09T12:00:51;28.43;33.93
69436;SHT31;56625;54.322;18.582;2023-07-09T12:03:24;28.41;34.24
69436;SHT31;56625;54.322;18.582;2023-07-09T12:05:56;28.36;34.46
69436;SHT31;56625;54.322;18.582;2023-07-09T12:08:32;28.48;34.76
69436;SHT31;56625;54.322;18.582;2023-07-09T12:11:03;28.65;34.73
69436;SHT31;56625;54.322;18.582;2023-07-09T12:13:36;28.75;34.00
69436;SHT31;56625;54.322;18.582;2023-07-09T12:18:57;28.58;34.32
69436;SHT31;56625;54.322;18.582;2023-07-09T12:21:24;28.59;34.13
69436;SHT31;56625;54.322;18.582;2023-07-09T12:23:52;28.58;34.36
69436;SHT31;56625;54.322;18.582;2023-07-09T12:26:22;28.56;34.16
69436;SHT31;56625;54.322;18.582;2023-07-09T12:28:56;28.56;34.52
69436;SHT31;56625;54.322;18.582;2023-07-09T12:31:25;28.63;34.62
69436;SHT31;56625;54.322;18.582;2023-07-09T12:33:55;28.58;34.30
69436;SHT31;56625;54.322;18.582;2023-07-09T12:36:25;28.58;34.51
69436;SHT31;56625;54.322;18.582;2023-07-09T12:39:00;28.56;34.08
69436;SHT31;56625;54.322;18.582;2023-07-09T12:41:31;28.46;33.99
69436;SHT31;56625;54.322;18.582;2023-07-09T12:44:04;28.42;34.58
69436;SHT31;56625;54.322;18.582;2023-07-09T12:46:34;28.59;34.74
69436;SHT31;56625;54.322;18.582;2023-07-09T12:49:00;28.73;34.01
69436;SHT31;56625;54.322;18.582;2023-07-09T12:51:28;28.67;34.14
69436;SHT31;56625;54.322;18.582;2023-07-09T12:56:41;28.72;34.20
69436;SHT31;56625;54.322;18.582;2023-07-09T12:59:28;28.50;34.13
69436;SHT31;56625;54.322;18.582;2023-07-09T13:04:46;28.29;35.01
69436;SHT31;56625;54.322;18.582;2023-07-09T13:09:48;28.22;35.16
69436;SHT31;56625;54.322;18.582;2023-07-09T13:12:16;28.35;35.11
69436;SHT31;56625;54.322;18.582;2023-07-09T13:14:46;28.41;34.68
69436;SHT31;56625;54.322;18.582;2023-07-09T13:17:20;28.50;35.03
69436;SHT31;56625;54.322;18.582;2023-07-09T13:19:47;28.61;35.22
69436;SHT31;56625;54.322;18.582;2023-07-09T13:22:15;28.70;34.97
69436;SHT31;56625;54.322;18.582;2023-07-09T13:24:46;28.57;35.14
69436;SHT31;56625;54.322;18.582;2023-07-09T13:27:13;28.45;35.33
69436;SHT31;56625;54.322;18.582;2023-07-09T13:29:41;28.27;35.65
69436;SHT31;56625;54.322;18.582;2023-07-09T13:32:12;27.93;36.60
69436;SHT31;56625;54.322;18.582;2023-07-09T13:34:41;27.62;37.03
69436;SHT31;56625;54.322;18.582;2023-07-09T13:37:12;27.35;37.29
69436;SHT31;56625;54.322;18.582;2023-07-09T13:39:42;27.08;37.50
69436;SHT31;56625;54.322;18.582;2023-07-09T13:42:12;26.88;38.15
69436;SHT31;56625;54.322;18.582;2023-07-09T13:44:43;26.76;38.60
69436;SHT31;56625;54.322;18.582;2023-07-09T13:47:16;26.71;38.68
69436;SHT31;56625;54.322;18.582;2023-07-09T13:49:45;26.79;38.97
69436;SHT31;56625;54.322;18.582;2023-07-09T13:52:17;26.87;38.48
69436;SHT31;56625;54.322;18.582;2023-07-09T13:54:49;26.84;38.75
69436;SHT31;56625;54.322;18.582;2023-07-09T13:57:17;26.86;38.69
69436;SHT31;56625;54.322;18.582;2023-07-09T13:59:48;26.95;38.91
69436;SHT31;56625;54.322;18.582;2023-07-09T14:02:23;27.08;38.35
69436;SHT31;56625;54.322;18.582;2023-07-09T14:04:58;27.05;38.12
69436;SHT31;56625;54.322;18.582;2023-07-09T14:07:33;27.00;38.27
69436;SHT31;56625;54.322;18.582;2023-07-09T14:10:07;26.95;38.44
69436;SHT31;56625;54.322;18.582;2023-07-09T14:12:41;26.96;38.86
69436;SHT31;56625;54.322;18.582;2023-07-09T14:15:15;26.97;38.91
69436;SHT31;56625;54.322;18.582;2023-07-09T14:17:46;27.00;39.18
69436;SHT31;56625;54.322;18.582;2023-07-09T14:20:13;26.95;39.57
69436;SHT31;56625;54.322;18.582;2023-07-09T14:22:43;26.79;40.20
69436;SHT31;56625;54.322;18.582;2023-07-09T14:25:15;26.59;40.83
69436;SHT31;56625;54.322;18.582;2023-07-09T14:27:48;26.56;41.14
69436;SHT31;56625;54.322;18.582;2023-07-09T14:30:17;26.52;41.86
69436;SHT31;56625;54.322;18.582;2023-07-09T14:32:49;26.50;42.67
69436;SHT31;56625;54.322;18.582;2023-07-09T14:35:19;26.36;42.95
69436;SHT31;56625;54.322;18.582;2023-07-09T14:37:49;26.27;43.37
69436;SHT31;56625;54.322;18.582;2023-07-09T14:40:20;26.22;43.63
69436;SHT31;56625;54.322;18.582;2023-07-09T14:42:48;26.26;43.53
69436;SHT31;56625;54.322;18.582;2023-07-09T14:45:19;26.31;42.81
69436;SHT31;56625;54.322;18.582;2023-07-09T14:47:52;26.26;42.33
69436;SHT31;56625;54.322;18.582;2023-07-09T14:50:20;26.21;42.34
69436;SHT31;56625;54.322;18.582;2023-07-09T14:52:49;26.16;42.41
69436;SHT31;56625;54.322;18.582;2023-07-09T14:55:16;26.13;42.58
69436;SHT31;56625;54.322;18.582;2023-07-09T14:57:47;26.16;42.76
69436;SHT31;56625;54.322;18.582;2023-07-09T15:00:15;26.17;43.30
69436;SHT31;56625;54.322;18.582;2023-07-09T15:02:45;26.06;43.49
69436;SHT31;56625;54.322;18.582;2023-07-09T15:05:19;26.05;43.68
69436;SHT31;56625;54.322;18.582;2023-07-09T15:07:51;25.99;43.45
69436;SHT31;56625;54.322;18.582;2023-07-09T15:10:25;25.75;43.99
69436;SHT31;56625;54.322;18.582;2023-07-09T15:12:55;25.61;44.46
69436;SHT31;56625;54.322;18.582;2023-07-09T15:15:24;25.58;44.89
69436;SHT31;56625;54.322;18.582;2023-07-09T15:17:58;25.62;45.45
69436;SHT31;56625;54.322;18.582;2023-07-09T15:20:34;25.65;45.27
69436;SHT31;56625;54.322;18.582;2023-07-09T15:23:02;25.66;45.41
69436;SHT31;56625;54.322;18.582;2023-07-09T15:25:29;25.74;44.92
69436;SHT31;56625;54.322;18.582;2023-07-09T15:27:59;25.73;44.12
69436;SHT31;56625;54.322;18.582;2023-07-09T15:30:27;25.66;45.47
69436;SHT31;56625;54.322;18.582;2023-07-09T15:32:56;25.69;45.80
69436;SHT31;56625;54.322;18.582;2023-07-09T15:35:34;25.81;46.54
69436;SHT31;56625;54.322;18.582;2023-07-09T15:40:45;25.74;46.52
69436;SHT31;56625;54.322;18.582;2023-07-09T15:43:14;25.70;46.75
69436;SHT31;56625;54.322;18.582;2023-07-09T15:45:42;25.71;46.17
69436;SHT31;56625;54.322;18.582;2023-07-09T15:48:22;25.79;45.57
69436;SHT31;56625;54.322;18.582;2023-07-09T15:50:53;25.81;44.53
69436;SHT31;56625;54.322;18.582;2023-07-09T15:53:20;25.72;44.71
69436;SHT31;56625;54.322;18.582;2023-07-09T15:55:47;25.67;45.27
69436;SHT31;56625;54.322;18.582;2023-07-09T15:58:19;25.78;45.34
69436;SHT31;56625;54.322;18.582;2023-07-09T16:00:51;25.98;45.28
69436;SHT31;56625;54.322;18.582;2023-07-09T16:03:17;26.15;45.25
69436;SHT31;56625;54.322;18.582;2023-07-09T16:05:49;26.26;44.93
69436;SHT31;56625;54.322;18.582;2023-07-09T16:08:16;26.36;44.91
69436;SHT31;56625;54.322;18.582;2023-07-09T16:10:43;26.49;44.83
69436;SHT31;56625;54.322;18.582;2023-07-09T16:13:20;26.54;44.43
69436;SHT31;56625;54.322;18.582;2023-07-09T16:15:50;26.51;44.47
69436;SHT31;56625;54.322;18.582;2023-07-09T16:18:17;26.58;44.27
69436;SHT31;56625;54.322;18.582;2023-07-09T16:20:46;26.58;44.34
69436;SHT31;56625;54.322;18.582;2023-07-09T16:23:17;26.65;44.40
69436;SHT31;56625;54.322;18.582;2023-07-09T16:25:49;26.77;44.19
69436;SHT31;56625;54.322;18.582;2023-07-09T16:28:16;26.82;44.33
69436;SHT31;56625;54.322;18.582;2023-07-09T16:30:46;27.01;43.61
69436;SHT31;56625;54.322;18.582;2023-07-09T16:33:16;27.27;43.11
69436;SHT31;56625;54.322;18.582;2023-07-09T16:35:43;27.38;42.04